Portada
METAR-TAF:

METAR-TAF

Aeroports :

Arequipa, Perú

latitud: 16-19S, longitud: 071-33W, altitud: 2538 m

Observació

L'informe es va fer fa 36 minuts, a les 18:00 UTC
Vent 6 kt amb direcció variable
Temperatura 20°C
Humitat 7%
Pressió 1027 hPa
Visibilitat 10 km o més
sense núvols per sota de 1500 mi sense presència de cumulonimbus.

METAR: SPQU 231800Z VRB06KT CAVOK 20/M17 Q1027 NOSIG RMK PP000

Hora: 13:36 (18:36 UTC)

Pronòstic

L'informe es va fer fa 1 hora i 36 minuts, a les 17:00 UTC
Pronòstic vàlid del 23 a les 18 UTC al 24 a les 18 UTC
Vent 10 kt del Oest/Sud-Oest
Visibilitat 10 km o més
sense núvols per sota de 1500 mi sense presència de cumulonimbus.
Evolucionant progressivament
l' 23 a les 22 UTC al 23 a les 24 UTC
Vent 6 kt del Nord-Est
Evolucionant progressivament
l' 24 a les 16 UTC al 24 a les 18 UTC
Vent 10 kt del Oest

TAF: SPQU 231700Z 2318/2418 25010KT CAVOK TX21/2319Z TN07/2410Z BECMG 2322/2324 05006KT BECMG 2416/2418 26010KT

Observacions i pronòstics meteorològics de més de 4000 aeroports (METAR i TAF).

Les estacions disponibles són els punts grocs i vermells al mapa.

Posi el ratolí al punt desitjat per veure el nom de l'estació.

Feu clic per veure les observacions i els pronòstics meteorològics.

Per canviar el mapa: feu clic els botons verds amb una creu de color negre per apropar; al botó verd amb un guió per allunyar la imatge; o en les fletxes verdes per a mapes adjacents.


METAR-TAF: